Terminal Aerodrome Forecast
Issued by NWS

Home | Current Version | Previous Version | Text Only | Print | Product List | Glossary On
Versions: 1 2 3 4 5 6 7 8 9 10 11 12 13 14 15 16 17 18 19 20 21
000
FTAK31 PAJN 041342 AAB
TAFAWG
TAF AMD
PAWG 041342Z 0414/0512 VRB03KT P6SM VCSH SCT005 BKN100 OVC150
      TEMPO 0414/0416 6SM -SHRA BR BKN005
     FM041600 31005KT P6SM VCSH SCT025 BKN050 OVC120
     FM050300 VRB04KT P6SM VCSH SCT025 BKN050=

USA.gov is the U.S. government's official web portal to all federal, state and local government web resources and services.